Flight Track Log - Related Links

Times and Time Zones

All times are in EDT time to prevent confusion due to time zone crossing. See the SWA1892 flight status page for this flight to view local times or setup timezone preferences in your user account.

Time Position Orientation Groundspeed Altitude Reporting Facility
EDT Latitude Longitude Course Direction KTS MPH feet Rate Location/Type
Sun 09:08:34 AM 36.1886 -95.8822 180° South 151 174 1,700  Level Kansas City Center
Sun 09:09:23 AM 36.1506 -95.8822 180° South 159 183 3,500 2,545 Climbing Kansas City Center
Sun 09:10:13 AM 36.1131 -95.8933 193° South 183 211 5,900 3,000 Climbing Kansas City Center
Sun 09:11:15 AM 36.0753 -95.9386 224° Southwest 215 247 9,100 2,683 Climbing Kansas City Center
Sun 09:12:16 AM 36.1194 -96.0247 302° West 289 333 11,400 2,780 Climbing Kansas City Center
Sun 09:13:18 AM 36.1758 -96.1219 306° West 331 381 14,800 3,242 Climbing Kansas City Center
Sun 09:14:20 AM 36.2322 -96.2253 304° West 351 404 18,100 3,171 Climbing Kansas City Center
Sun 09:15:21 AM 36.2925 -96.3328 305° West 368 423 21,300 2,439 Climbing Kansas City Center
Sun 09:16:23 AM 36.3533 -96.4442 304° West 382 440 23,100 2,341 Climbing Kansas City Center
Sun 09:17:24 AM 36.4308 -96.5831 305° West 397 457 26,100 2,585 Climbing Kansas City Center
Sun 09:18:26 AM 36.4953 -96.7008 304° West 403 464 28,400 2,032 Climbing Kansas City Center
Sun 09:19:28 AM 36.5628 -96.8225 305° West 419 482 30,300 2,049 Climbing Kansas City Center
Sun 09:20:29 AM 36.6339 -96.9519 304° West 440 506 32,600 2,146 Climbing Kansas City Center
Sun 09:21:31 AM 36.7025 -97.0781 304° West 440 506 34,700 1,645 Climbing Kansas City Center
Sun 09:22:33 AM 36.7653 -97.2039 302° West 440 506 36,000 634 Climbing Kansas City Center
Sun 09:23:34 AM 36.8128 -97.3433 293° West 440 506 36,000  Level Kansas City Center
Sun 09:24:36 AM 36.8725 -97.5069 295° West 434 499 36,000  Level Kansas City Center
Sun 09:25:38 AM 36.9289 -97.6381 298° West 436 502 36,000  Level Kansas City Center
Sun 09:26:39 AM 37.0047 -97.7586 308° West 439 505 36,000  Level Kansas City Center
Sun 09:27:41 AM 37.0742 -97.8811 305° West 435 501 36,000  Level Kansas City Center
Sun 09:28:43 AM 37.1453 -98.0047 306° West 434 499 36,000  Level Kansas City Center
Sun 09:29:45 AM 37.2164 -98.1289 306° West 435 501 36,000  Level Kansas City Center
Sun 09:30:47 AM 37.2883 -98.2547 306° West 437 503 36,000  Level Kansas City Center
Sun 09:31:48 AM 37.3469 -98.3858 299° West 433 498 36,000 341 Level Kansas City Center
Sun 09:32:50 AM 37.3739 -98.5561 281° West 413 475 36,700 581 Climbing Kansas City Center
Sun 09:33:52 AM 37.4058 -98.6942 286° West 410 472 37,200 1,016 Climbing Kansas City Center
Sun 09:34:54 AM 37.4533 -98.8306 294° West 421 484 38,800 1,355 Climbing Kansas City Center
Sun 09:35:56 AM 37.5014 -98.9658 294° West 420 483 40,000 581 Climbing Kansas City Center
Sun 09:36:58 AM 37.5469 -99.0983 293° West 415 478 40,000  Level Kansas City Center
Sun 09:37:59 AM 37.5925 -99.2314 293° West 413 475 40,000  Level Kansas City Center
Sun 09:39:01 AM 37.6400 -99.3647 294° West 415 478 40,000  Level Kansas City Center
Sun 09:40:03 AM 37.6919 -99.5161 293° West 411 473 40,000  Level Kansas City Center
Sun 09:41:05 AM 37.7353 -99.6444 293° West 413 475 40,000  Level Kansas City Center
Sun 09:42:07 AM 37.7861 -99.7919 294° West 413 475 40,000  Level Kansas City Center
Sun 09:43:09 AM 37.8292 -99.9192 293° West 412 474 40,000  Level Kansas City Center
Sun 09:44:11 AM 37.8800 -100.0681 293° West 413 475 40,000  Level Kansas City Center
Sun 09:45:13 AM 37.9225 -100.1947 293° West 411 473 40,000  Level Kansas City Center
Sun 09:46:15 AM 37.9711 -100.3414 293° West 408 470 40,000  Level Kansas City Center
Sun 09:47:17 AM 38.0139 -100.4681 293° West 408 470 40,000  Level Kansas City Center
Sun 09:48:19 AM 38.0617 -100.6147 293° West 407 468 40,000  Level Kansas City Center
Sun 09:49:21 AM 38.1031 -100.7386 293° West 404 465 40,000  Level Kansas City Center
Sun 09:50:23 AM 38.1500 -100.8858 292° West 404 465 40,000  Level Kansas City Center
Sun 09:51:25 AM 38.1914 -101.0111 293° West 404 465 40,000  Level Kansas City Center
Sun 09:52:25 AM 38.2392 -101.1603 292° West 410 472 40,000  Level Denver Center
Sun 09:53:26 AM 38.2800 -101.2886 292° West 410 472 40,000  Level Denver Center
Sun 09:54:27 AM 38.3217 -101.4167 293° West 410 472 40,000 -197 Level Denver Center
Sun 09:55:28 AM 38.3700 -101.5694 292° West 415 478 39,600 -683 Descending Denver Center
Sun 09:56:30 AM 38.4100 -101.6947 292° West 402 463 38,600 -976 Descending Denver Center
Sun 09:57:31 AM 38.4572 -101.8417 292° West 402 463 37,600 -934 Descending Denver Center
Sun 09:58:32 AM 38.4978 -101.9722 292° West 413 475 36,700 -885 Descending Denver Center
Sun 09:59:33 AM 38.5386 -102.1033 292° West 418 481 35,800 -976 Descending Denver Center
Sun 10:00:35 AM 38.5933 -102.2556 295° West 422 486 34,700 -878 Descending Denver Center
Sun 10:01:36 AM 38.6525 -102.3769 302° West 421 484 34,000 -344 Descending Denver Center
Sun 10:02:37 AM 38.7233 -102.5197 302° West 425 489 34,000  Level Denver Center
Sun 10:03:38 AM 38.7822 -102.6408 302° West 420 483 34,000  Level Denver Center
Sun 10:04:40 AM 38.8486 -102.7786 302° West 421 484 34,000  Level Denver Center
Sun 10:05:41 AM 38.9089 -102.9053 301° West 418 481 34,000  Level Denver Center
Sun 10:06:42 AM 38.9703 -103.0325 302° West 418 481 34,000 -1,073 Level Denver Center
Sun 10:07:44 AM 39.0300 -103.1608 301° West 419 482 31,800 -2,293 Descending Denver Center
Sun 10:08:45 AM 39.0908 -103.2864 302° West 415 478 29,300 -2,439 Descending Denver Center
Sun 10:09:47 AM 39.1494 -103.4100 301° West 407 468 26,800 -2,390 Descending Denver Center
Sun 10:10:48 AM 39.2069 -103.5322 301° West 401 461 24,400 -2,293 Descending Denver Center
Sun 10:11:50 AM 39.2636 -103.6525 301° West 395 455 22,100 -2,488 Descending Denver Center
Sun 10:12:51 AM 39.3294 -103.7947 301° West 388 447 19,300 -2,195 Descending Denver Center
Sun 10:13:53 AM 39.3822 -103.9072 301° West 373 429 17,600 -1,854 Descending Denver Center
Sun 10:14:54 AM 39.3994 -104.0361 280° West 355 409 15,500 -1,951 Descending Denver Center
Sun 10:15:56 AM 39.4067 -104.1489 275° West 321 369 13,600 -1,171 Descending Denver Center
Sun 10:16:57 AM 39.4111 -104.2553 273° West 293 337 13,100 -667 Descending Denver Center
Sun 10:18:11 AM 39.4164 -104.3733 273° West 268 308 12,100 -1,015 Descending Denver Center
Sun 10:19:13 AM 39.4200 -104.4717 273° West 257 296 10,800 -1,015 Descending Denver Center
Sun 10:20:27 AM 39.4694 -104.5303 318° Northwest 279 321 9,800 -794 Descending Denver Center
Sun 10:21:29 AM 39.5575 -104.5667 342° North 263 303 9,000 -780 Descending Denver Center
Sun 10:22:30 AM 39.6189 -104.5903 343° North 236 272 8,200 -829 Descending Denver Center
Sun 10:23:32 AM 39.6817 -104.6156 343° North 222 255 7,300 -585 Descending Denver Center
Sun 10:24:33 AM 39.7236 -104.6328 342° North 209 241 7,000 -390 Descending Denver Center
Sun 10:25:35 AM 39.7800 -104.6425 352° North 167 192 6,500 -677 Descending Denver Center
Sun 10:26:37 AM 39.8228 -104.6419 North 144 166 5,600 -871 Descending Denver Center
Sun 10:28:00 AM 39.8500 -104.6667 North  Level FlightAware Approximate
Sun 10:35:00 AM 39.8617 -104.6732 North  Level Estimated
Sun 10:36:00 AM 39.8617 -104.6732 North  Level Estimated
Sun 10:37:00 AM 39.8617 -104.6732 North  Level Estimated

Login

Don't have an account? Register now (free) for customized features, flight alerts, and more!